CYCYCYUB

Guest
Details From CYCY - Clyde River
To CYUB - Tuktoyaktuk
Flight Number -
Tags Decoded
Created
Modified
Stats Distance 2,170 nm / 4,019 km
Max Altitude 0 ft / 0 m
Waypoints 5
Social Downloads 1
Likes 0
Share VATSIM

Download

Looking for another format? Having issues loading an existing format? Contact us
Advertisement - Login to hide

Notes

Decoded

Route

CYCY CYVM CYEK CYBK CYUB

ID Type Via Altitude Latitude Longitude Leg Dist Tot Dist Heading (true) Name
O CYCY APT - 0 ft / 0 m 70.48139˚ -68.52111˚ - 0 nm - -
CYVM APT - 0 ft / 0 m 67.54195˚ -64.03806˚ 201 nm 201 nm 149° / 153° -
CYEK APT - 0 ft / 0 m 61.09886˚ -94.07665˚ 860 nm 1061 nm 258° / 231° -
CYBK APT - 0 ft / 0 m 64.30444˚ -96.08195˚ 200 nm 1261 nm 345° / 343° BAKER LAKE
O CYUB APT - 0 ft / 0 m 69.43722˚ -133.04250˚ 907 nm 2169 nm 306° / 272° -

Altitude Profile

Advertisement - Login to hide

Weather


0- 5 10 15 20 25 30 35+ Temperature / ° C

Clouds and Precipitation
Forecast for 2017-12-15 06:00 UTC. Updated an hour ago

Ground ~20,000 ft ~40,000 ft Winds

CYCY

Details ICAO CYCY (YCY)
Name CLYDE RIVER
Region Canada
Timezone America/Iqaluit (UTC-5.0)
Stats Elevation 87 ft / 27 m (AMSL)
Location 70.486114° -68.516529°
Runways 1
Magnetic Variation 35.675° W

METAR

CYCY 150600Z AUTO 31016KT 4SM -SN OVC013 M16/M18 A2989 RMK SLP127

Decode

TAF

TAF CYCY 150038Z 1501/1513 30012KT P6SM -SN SCT012 BKN050 TEMPO 1501/1513 21/2SM -SN BKN012 OVC050 RMK FCST BASED ON AUTO OBS. NXT FCST BY 150700Z

Decode

Departure Runways

ID Width Length Bearing (true) Bearing (mag) Surface Threshold Offset Overrun Length
02T 100 ft / 30 m 3,623 ft / 1,104 m 17.95° 53.63° Gravel 0 ft / 0 m 0 ft / 0 m
20T 100 ft / 30 m 3,623 ft / 1,104 m 197.96° 233.64° Gravel 0 ft / 0 m 0 ft / 0 m

CYUB

Details ICAO CYUB (YUB)
Name TUKTOYAKTUK
Region Canada
Timezone America/Yellowknife (UTC-7.0)
Stats Elevation 15 ft / 5 m (AMSL)
Location 69.433334° -133.026390°
Runways 1
Magnetic Variation 21.830° E

METAR

CYUB 150600Z 08005KT 10SM -SN OVC010 M13/M14 A2962 RMK SC8 TRACE LOOSE/LAST OBS/NXT 151400UTC SLP033

Decode

TAF

TAF AMD CYUB 150315Z 1503/1506 10010KT P6SM BKN010 TEMPO 1503/1506 P6SM -SN OVC004 RMK NXT FCST WILL BE ISSUED AT 151545Z

Decode

Destination Runways

ID Width Length Bearing (true) Bearing (mag) Surface Threshold Offset Overrun Length
09 150 ft / 46 m 5,012 ft / 1,528 m 124.50° 102.67° Gravel 200 ft / 61 m 0 ft / 0 m
27 150 ft / 46 m 5,012 ft / 1,528 m 304.53° 282.70° Gravel 200 ft / 61 m 0 ft / 0 m